sensor_id;sensor_type;location;lat;lon;timestamp;pressure;altitude;pressure_sealevel;temperature;humidity
11053;BME280;55230;42.602;23.470;2023-06-26T00:01:33;93362.88;;;18.57;100.00
11053;BME280;55230;42.602;23.470;2023-06-26T00:03:59;93369.09;;;18.47;100.00
11053;BME280;55230;42.602;23.470;2023-06-26T00:06:26;93368.63;;;18.48;100.00
11053;BME280;55230;42.602;23.470;2023-06-26T00:08:53;93365.13;;;18.48;100.00
11053;BME280;55230;42.602;23.470;2023-06-26T00:11:20;93363.16;;;18.42;100.00
11053;BME280;55230;42.602;23.470;2023-06-26T00:13:46;93363.41;;;18.45;100.00
11053;BME280;55230;42.602;23.470;2023-06-26T00:16:14;93368.38;;;18.46;100.00
11053;BME280;55230;42.602;23.470;2023-06-26T00:18:41;93368.13;;;18.44;100.00
11053;BME280;55230;42.602;23.470;2023-06-26T00:21:07;93364.13;;;18.45;100.00
11053;BME280;55230;42.602;23.470;2023-06-26T00:23:34;93363.88;;;18.43;100.00
11053;BME280;55230;42.602;23.470;2023-06-26T00:26:02;93361.88;;;18.38;100.00
11053;BME280;55230;42.602;23.470;2023-06-26T00:28:28;93360.19;;;18.40;100.00
11053;BME280;55230;42.602;23.470;2023-06-26T00:30:55;93358.69;;;18.39;100.00
11053;BME280;55230;42.602;23.470;2023-06-26T00:33:22;93354.69;;;18.35;100.00
11053;BME280;55230;42.602;23.470;2023-06-26T00:35:49;93359.19;;;18.32;100.00
11053;BME280;55230;42.602;23.470;2023-06-26T00:38:15;93354.19;;;18.31;100.00
11053;BME280;55230;42.602;23.470;2023-06-26T00:40:42;93352.97;;;18.32;100.00
11053;BME280;55230;42.602;23.470;2023-06-26T00:43:09;93362.16;;;18.29;100.00
11053;BME280;55230;42.602;23.470;2023-06-26T00:45:35;93350.75;;;18.25;100.00
11053;BME280;55230;42.602;23.470;2023-06-26T00:48:02;93355.72;;;18.26;100.00
11053;BME280;55230;42.602;23.470;2023-06-26T00:50:30;93358.94;;;18.25;100.00
11053;BME280;55230;42.602;23.470;2023-06-26T00:52:57;93349.75;;;18.28;100.00
11053;BME280;55230;42.602;23.470;2023-06-26T00:55:25;93352.72;;;18.24;100.00
11053;BME280;55230;42.602;23.470;2023-06-26T00:57:52;93351.00;;;18.21;100.00
11053;BME280;55230;42.602;23.470;2023-06-26T01:00:18;93350.75;;;18.25;100.00
11053;BME280;55230;42.602;23.470;2023-06-26T01:02:45;93349.28;;;18.24;100.00
11053;BME280;55230;42.602;23.470;2023-06-26T01:05:11;93345.81;;;18.18;100.00
11053;BME280;55230;42.602;23.470;2023-06-26T01:07:47;93341.34;;;18.20;100.00
11053;BME280;55230;42.602;23.470;2023-06-26T01:10:14;93340.34;;;18.18;100.00
11053;BME280;55230;42.602;23.470;2023-06-26T01:12:41;93339.09;;;18.19;100.00
11053;BME280;55230;42.602;23.470;2023-06-26T01:15:08;93333.66;;;18.08;100.00
11053;BME280;55230;42.602;23.470;2023-06-26T01:17:36;93335.16;;;17.98;100.00
11053;BME280;55230;42.602;23.470;2023-06-26T01:20:03;93333.66;;;18.02;100.00
11053;BME280;55230;42.602;23.470;2023-06-26T01:22:33;93336.13;;;18.06;100.00
11053;BME280;55230;42.602;23.470;2023-06-26T01:25:12;93326.47;;;17.99;100.00
11053;BME280;55230;42.602;23.470;2023-06-26T01:27:45;93332.19;;;17.96;100.00
11053;BME280;55230;42.602;23.470;2023-06-26T01:30:12;93335.13;;;18.03;100.00
11053;BME280;55230;42.602;23.470;2023-06-26T01:32:39;93338.38;;;18.07;100.00
11053;BME280;55230;42.602;23.470;2023-06-26T01:35:06;93330.69;;;18.06;100.00
11053;BME280;55230;42.602;23.470;2023-06-26T01:37:33;93328.19;;;18.08;100.00
11053;BME280;55230;42.602;23.470;2023-06-26T01:39:59;93329.19;;;18.10;100.00
11053;BME280;55230;42.602;23.470;2023-06-26T01:42:26;93314.31;;;18.06;100.00
11053;BME280;55230;42.602;23.470;2023-06-26T01:44:54;93318.28;;;17.94;100.00
11053;BME280;55230;42.602;23.470;2023-06-26T01:47:22;93322.75;;;17.97;100.00
11053;BME280;55230;42.602;23.470;2023-06-26T01:49:52;93324.00;;;17.90;100.00
11053;BME280;55230;42.602;23.470;2023-06-26T01:52:22;93311.88;;;17.86;100.00
11053;BME280;55230;42.602;23.470;2023-06-26T01:54:55;93311.13;;;17.85;100.00
11053;BME280;55230;42.602;23.470;2023-06-26T01:57:23;93317.53;;;17.88;100.00
11053;BME280;55230;42.602;23.470;2023-06-26T01:59:55;93313.34;;;17.87;100.00
11053;BME280;55230;42.602;23.470;2023-06-26T02:02:23;93311.38;;;17.93;100.00
11053;BME280;55230;42.602;23.470;2023-06-26T02:04:50;93310.34;;;17.96;100.00
11053;BME280;55230;42.602;23.470;2023-06-26T02:07:17;93316.81;;;17.93;100.00
11053;BME280;55230;42.602;23.470;2023-06-26T02:09:43;93309.84;;;17.92;100.00
11053;BME280;55230;42.602;23.470;2023-06-26T02:12:10;93308.84;;;17.95;100.00
11053;BME280;55230;42.602;23.470;2023-06-26T02:14:36;93310.09;;;17.88;100.00
11053;BME280;55230;42.602;23.470;2023-06-26T02:17:04;93316.06;;;17.92;100.00
11053;BME280;55230;42.602;23.470;2023-06-26T02:19:32;93304.41;;;17.92;100.00
11053;BME280;55230;42.602;23.470;2023-06-26T02:21:58;93304.91;;;17.96;100.00
11053;BME280;55230;42.602;23.470;2023-06-26T02:24:24;93313.09;;;17.90;100.00
11053;BME280;55230;42.602;23.470;2023-06-26T02:26:55;93313.34;;;17.87;100.00
11053;BME280;55230;42.602;23.470;2023-06-26T02:29:21;93310.59;;;17.81;100.00
11053;BME280;55230;42.602;23.470;2023-06-26T02:31:47;93310.09;;;17.83;100.00
11053;BME280;55230;42.602;23.470;2023-06-26T02:34:15;93307.38;;;17.83;100.00
11053;BME280;55230;42.602;23.470;2023-06-26T02:36:42;93314.09;;;17.76;100.00
11053;BME280;55230;42.602;23.470;2023-06-26T02:39:08;93316.34;;;17.72;100.00
11053;BME280;55230;42.602;23.470;2023-06-26T02:41:35;93309.13;;;17.69;100.00
11053;BME280;55230;42.602;23.470;2023-06-26T02:44:01;93312.34;;;17.68;100.00
11053;BME280;55230;42.602;23.470;2023-06-26T02:46:28;93316.56;;;17.63;100.00
11053;BME280;55230;42.602;23.470;2023-06-26T02:48:54;93314.81;;;17.66;100.00
11053;BME280;55230;42.602;23.470;2023-06-26T02:51:23;93319.78;;;17.67;100.00
11053;BME280;55230;42.602;23.470;2023-06-26T02:53:49;93319.31;;;17.69;100.00
11053;BME280;55230;42.602;23.470;2023-06-26T02:56:15;93318.81;;;17.65;100.00
11053;BME280;55230;42.602;23.470;2023-06-26T02:58:42;93309.13;;;17.69;100.00
11053;BME280;55230;42.602;23.470;2023-06-26T03:01:08;93323.00;;;17.66;100.00
11053;BME280;55230;42.602;23.470;2023-06-26T03:03:35;93316.81;;;17.71;100.00
11053;BME280;55230;42.602;23.470;2023-06-26T03:06:05;93317.56;;;17.77;100.00
11053;BME280;55230;42.602;23.470;2023-06-26T03:08:34;93322.03;;;17.80;100.00
11053;BME280;55230;42.602;23.470;2023-06-26T03:11:01;93319.53;;;17.76;100.00
11053;BME280;55230;42.602;23.470;2023-06-26T03:13:27;93322.53;;;17.78;100.00
11053;BME280;55230;42.602;23.470;2023-06-26T03:15:53;93331.19;;;17.77;100.00
11053;BME280;55230;42.602;23.470;2023-06-26T03:18:20;93324.75;;;17.80;100.00
11053;BME280;55230;42.602;23.470;2023-06-26T03:20:46;93322.28;;;17.82;100.00
11053;BME280;55230;42.602;23.470;2023-06-26T03:23:13;93325.72;;;17.88;100.00
11053;BME280;55230;42.602;23.470;2023-06-26T03:25:41;93322.03;;;17.96;100.00
11053;BME280;55230;42.602;23.470;2023-06-26T03:28:07;93334.66;;;18.05;100.00
11053;BME280;55230;42.602;23.470;2023-06-26T03:30:34;93332.41;;;18.09;100.00
11053;BME280;55230;42.602;23.470;2023-06-26T03:33:00;93323.97;;;18.18;100.00
11053;BME280;55230;42.602;23.470;2023-06-26T03:35:27;93332.59;;;18.33;100.00
11053;BME280;55230;42.602;23.470;2023-06-26T03:37:53;93337.59;;;18.40;100.00
11053;BME280;55230;42.602;23.470;2023-06-26T03:40:20;93343.28;;;18.53;100.00
11053;BME280;55230;42.602;23.470;2023-06-26T03:42:48;93337.50;;;18.73;100.00
11053;BME280;55230;42.602;23.470;2023-06-26T03:45:14;93335.00;;;18.81;100.00
11053;BME280;55230;42.602;23.470;2023-06-26T03:47:41;93325.75;;;18.89;100.00
11053;BME280;55230;42.602;23.470;2023-06-26T03:50:08;93332.84;;;19.14;100.00
11053;BME280;55230;42.602;23.470;2023-06-26T03:52:34;93342.44;;;19.37;100.00
11053;BME280;55230;42.602;23.470;2023-06-26T03:55:01;93344.09;;;19.81;100.00
11053;BME280;55230;42.602;23.470;2023-06-26T03:57:28;93341.53;;;20.24;100.00
11053;BME280;55230;42.602;23.470;2023-06-26T03:59:55;93345.03;;;20.48;100.00
11053;BME280;55230;42.602;23.470;2023-06-26T04:02:22;93347.09;;;20.42;100.00
11053;BME280;55230;42.602;23.470;2023-06-26T04:04:49;93354.56;;;20.66;100.00
11053;BME280;55230;42.602;23.470;2023-06-26T04:07:15;93352.13;;;20.33;100.00
11053;BME280;55230;42.602;23.470;2023-06-26T04:09:42;93352.31;;;20.16;100.00
11053;BME280;55230;42.602;23.470;2023-06-26T04:12:08;93341.09;;;19.85;100.00
11053;BME280;55230;42.602;23.470;2023-06-26T04:14:35;93346.16;;;19.75;100.00
11053;BME280;55230;42.602;23.470;2023-06-26T04:17:03;93341.19;;;19.74;100.00
11053;BME280;55230;42.602;23.470;2023-06-26T04:19:29;93345.09;;;19.84;100.00
11053;BME280;55230;42.602;23.470;2023-06-26T04:21:56;93358.69;;;19.95;100.00
11053;BME280;55230;42.602;23.470;2023-06-26T04:24:23;93349.31;;;20.44;100.00
11053;BME280;55230;42.602;23.470;2023-06-26T04:26:50;93365.00;;;20.43;100.00
11053;BME280;55230;42.602;23.470;2023-06-26T04:29:16;93363.22;;;20.22;100.00
11053;BME280;55230;42.602;23.470;2023-06-26T04:31:43;93361.84;;;20.04;100.00
11053;BME280;55230;42.602;23.470;2023-06-26T04:34:13;93364.25;;;19.84;100.00
11053;BME280;55230;42.602;23.470;2023-06-26T04:36:39;93354.31;;;19.81;100.00
11053;BME280;55230;42.602;23.470;2023-06-26T04:39:06;93354.06;;;19.43;100.00
11053;BME280;55230;42.602;23.470;2023-06-26T04:41:32;93350.13;;;19.39;100.00
11053;BME280;55230;42.602;23.470;2023-06-26T04:44:00;93349.59;;;19.46;100.00
11053;BME280;55230;42.602;23.470;2023-06-26T04:46:26;93357.75;;;19.51;100.00
11053;BME280;55230;42.602;23.470;2023-06-26T04:48:53;93349.13;;;19.36;100.00
11053;BME280;55230;42.602;23.470;2023-06-26T04:51:24;93353.94;;;19.14;100.00
11053;BME280;55230;42.602;23.470;2023-06-26T04:53:52;93353.94;;;19.14;100.00
11053;BME280;55230;42.602;23.470;2023-06-26T04:56:18;93352.25;;;19.05;100.00
11053;BME280;55230;42.602;23.470;2023-06-26T04:58:45;93355.03;;;19.00;100.00
11053;BME280;55230;42.602;23.470;2023-06-26T05:01:11;93362.38;;;19.16;100.00
11053;BME280;55230;42.602;23.470;2023-06-26T05:03:38;93356.69;;;19.14;100.00
11053;BME280;55230;42.602;23.470;2023-06-26T05:06:05;93365.16;;;19.10;100.00
11053;BME280;55230;42.602;23.470;2023-06-26T05:08:33;93364.69;;;19.06;100.00
11053;BME280;55230;42.602;23.470;2023-06-26T05:10:59;93365.25;;;18.88;100.00
11053;BME280;55230;42.602;23.470;2023-06-26T05:13:26;93370.78;;;18.66;100.00
11053;BME280;55230;42.602;23.470;2023-06-26T05:15:53;93371.03;;;18.63;100.00
11053;BME280;55230;42.602;23.470;2023-06-26T05:18:20;93369.09;;;18.52;100.00
11053;BME280;55230;42.602;23.470;2023-06-26T05:20:46;93372.06;;;18.54;100.00
11053;BME280;55230;42.602;23.470;2023-06-26T05:23:13;93372.31;;;18.56;100.00
11053;BME280;55230;42.602;23.470;2023-06-26T05:25:42;93370.03;;;18.66;100.00
11053;BME280;55230;42.602;23.470;2023-06-26T05:28:09;93371.28;;;18.76;100.00
11053;BME280;55230;42.602;23.470;2023-06-26T05:30:37;93376.69;;;18.81;100.00
11053;BME280;55230;42.602;23.470;2023-06-26T05:33:04;93381.19;;;18.79;100.00
11053;BME280;55230;42.602;23.470;2023-06-26T05:35:31;93379.91;;;18.91;100.00
11053;BME280;55230;42.602;23.470;2023-06-26T05:37:58;93374.44;;;18.91;100.00
11053;BME280;55230;42.602;23.470;2023-06-26T05:40:24;93375.66;;;18.95;100.00
11053;BME280;55230;42.602;23.470;2023-06-26T05:42:53;93371.88;;;19.04;100.00
11053;BME280;55230;42.602;23.470;2023-06-26T05:45:19;93372.16;;;19.00;100.00
11053;BME280;55230;42.602;23.470;2023-06-26T05:47:46;93374.63;;;18.98;100.00
11053;BME280;55230;42.602;23.470;2023-06-26T05:50:13;93371.91;;;18.98;100.00
11053;BME280;55230;42.602;23.470;2023-06-26T05:52:40;93372.91;;;19.01;100.00
11053;BME280;55230;42.602;23.470;2023-06-26T05:55:07;93379.53;;;19.16;100.00
11053;BME280;55230;42.602;23.470;2023-06-26T05:57:34;93373.31;;;19.21;100.00
11053;BME280;55230;42.602;23.470;2023-06-26T06:00:03;93388.44;;;19.22;100.00
11053;BME280;55230;42.602;23.470;2023-06-26T06:02:35;93385.53;;;19.09;100.00
11053;BME280;55230;42.602;23.470;2023-06-26T06:05:02;93382.03;;;19.14;100.00
11053;BME280;55230;42.602;23.470;2023-06-26T06:07:28;93384.00;;;19.19;100.00
11053;BME280;55230;42.602;23.470;2023-06-26T06:09:55;93384.75;;;19.20;100.00
11053;BME280;55230;42.602;23.470;2023-06-26T06:12:21;93392.69;;;19.23;100.00
11053;BME280;55230;42.602;23.470;2023-06-26T06:14:48;93390.19;;;19.25;100.00
11053;BME280;55230;42.602;23.470;2023-06-26T06:17:16;93379.50;;;19.27;100.00
11053;BME280;55230;42.602;23.470;2023-06-26T06:19:42;93390.88;;;19.42;100.00
11053;BME280;55230;42.602;23.470;2023-06-26T06:22:09;93381.34;;;19.54;100.00
11053;BME280;55230;42.602;23.470;2023-06-26T06:24:35;93386.25;;;19.67;100.00
11053;BME280;55230;42.602;23.470;2023-06-26T06:27:02;93382.47;;;19.76;100.00
11053;BME280;55230;42.602;23.470;2023-06-26T06:29:28;93390.13;;;19.83;100.00
11053;BME280;55230;42.602;23.470;2023-06-26T06:31:56;93390.59;;;19.87;100.00
11053;BME280;55230;42.602;23.470;2023-06-26T06:34:24;93395.44;;;20.05;100.00
11053;BME280;55230;42.602;23.470;2023-06-26T06:36:50;93384.41;;;20.45;100.00
11053;BME280;55230;42.602;23.470;2023-06-26T06:39:17;93388.47;;;20.63;100.00
11053;BME280;55230;42.602;23.470;2023-06-26T06:41:43;93394.34;;;20.97;100.00
11053;BME280;55230;42.602;23.470;2023-06-26T06:44:10;93389.34;;;21.19;100.00
11053;BME280;55230;42.602;23.470;2023-06-26T06:46:36;93391.66;;;20.91;100.00
11053;BME280;55230;42.602;23.470;2023-06-26T06:49:03;93391.78;;;21.04;100.00
11053;BME280;55230;42.602;23.470;2023-06-26T06:51:30;93393.25;;;21.29;100.00
11053;BME280;55230;42.602;23.470;2023-06-26T06:53:57;93391.44;;;21.32;100.00
11053;BME280;55230;42.602;23.470;2023-06-26T06:56:24;93393.81;;;21.22;100.00
11053;BME280;55230;42.602;23.470;2023-06-26T06:58:50;93391.66;;;20.91;100.00
11053;BME280;55230;42.602;23.470;2023-06-26T07:01:16;93393.75;;;20.80;100.00
11053;BME280;55230;42.602;23.470;2023-06-26T07:03:43;93390.81;;;21.02;100.00
11053;BME280;55230;42.602;23.470;2023-06-26T07:06:09;93393.56;;;20.78;100.00
11053;BME280;55230;42.602;23.470;2023-06-26T07:08:37;93388.13;;;20.96;100.00
11053;BME280;55230;42.602;23.470;2023-06-26T07:11:04;93383.22;;;20.89;100.00
11053;BME280;55230;42.602;23.470;2023-06-26T07:13:30;93396.03;;;21.05;100.00
11053;BME280;55230;42.602;23.470;2023-06-26T07:15:57;93395.72;;;21.09;100.00
11053;BME280;55230;42.602;23.470;2023-06-26T07:18:23;93390.25;;;21.09;100.00
11053;BME280;55230;42.602;23.470;2023-06-26T07:20:50;93393.53;;;21.44;100.00
11053;BME280;55230;42.602;23.470;2023-06-26T07:23:16;93390.19;;;21.89;100.00
11053;BME280;55230;42.602;23.470;2023-06-26T07:25:44;93399.09;;;22.58;96.69
11053;BME280;55230;42.602;23.470;2023-06-26T07:28:11;93397.41;;;22.55;94.58
11053;BME280;55230;42.602;23.470;2023-06-26T07:30:37;93398.00;;;22.48;94.96
11053;BME280;55230;42.602;23.470;2023-06-26T07:33:04;93400.78;;;22.61;94.07
11053;BME280;55230;42.602;23.470;2023-06-26T07:35:30;93395.84;;;22.41;94.05
11053;BME280;55230;42.602;23.470;2023-06-26T07:37:57;93396.47;;;22.02;91.15
11053;BME280;55230;42.602;23.470;2023-06-26T07:40:23;93393.53;;;21.82;93.18
11053;BME280;55230;42.602;23.470;2023-06-26T07:42:51;93399.53;;;21.61;94.13
11053;BME280;55230;42.602;23.470;2023-06-26T07:45:19;93387.81;;;21.79;96.48
11053;BME280;55230;42.602;23.470;2023-06-26T07:47:45;93397.25;;;21.65;96.74
11053;BME280;55230;42.602;23.470;2023-06-26T07:50:12;93393.00;;;21.83;97.14
11053;BME280;55230;42.602;23.470;2023-06-26T07:52:40;93399.03;;;22.45;97.01
11053;BME280;55230;42.602;23.470;2023-06-26T07:55:07;93385.78;;;22.75;91.68
11053;BME280;55230;42.602;23.470;2023-06-26T07:57:34;93389.81;;;22.74;92.86
11053;BME280;55230;42.602;23.470;2023-06-26T08:00:02;93399.31;;;22.60;89.05
11053;BME280;55230;42.602;23.470;2023-06-26T08:02:29;93402.28;;;22.62;88.21
11053;BME280;55230;42.602;23.470;2023-06-26T08:04:55;93409.69;;;22.67;84.35
11053;BME280;55230;42.602;23.470;2023-06-26T08:07:22;93406.84;;;22.99;85.56
11053;BME280;55230;42.602;23.470;2023-06-26T08:09:48;93405.78;;;23.02;82.69
11053;BME280;55230;42.602;23.470;2023-06-26T08:12:15;93401.66;;;22.82;83.82
11053;BME280;55230;42.602;23.470;2023-06-26T08:14:41;93399.13;;;22.97;83.46
11053;BME280;55230;42.602;23.470;2023-06-26T08:17:09;93390.75;;;23.03;84.09
11053;BME280;55230;42.602;23.470;2023-06-26T08:19:35;93396.66;;;22.54;84.42
11053;BME280;55230;42.602;23.470;2023-06-26T08:22:02;93391.91;;;22.55;87.28
11053;BME280;55230;42.602;23.470;2023-06-26T08:24:28;93387.78;;;22.61;87.31
11053;BME280;55230;42.602;23.470;2023-06-26T08:26:55;93395.84;;;22.85;83.54
11053;BME280;55230;42.602;23.470;2023-06-26T08:29:21;93392.78;;;23.15;82.40
11053;BME280;55230;42.602;23.470;2023-06-26T08:31:48;93399.75;;;23.42;80.69
11053;BME280;55230;42.602;23.470;2023-06-26T08:34:16;93402.19;;;23.07;82.56
11053;BME280;55230;42.602;23.470;2023-06-26T08:36:42;93405.88;;;23.09;84.71
11053;BME280;55230;42.602;23.470;2023-06-26T08:39:10;93398.69;;;23.06;82.41
11053;BME280;55230;42.602;23.470;2023-06-26T08:41:36;93405.69;;;23.46;80.33
11053;BME280;55230;42.602;23.470;2023-06-26T08:44:03;93394.75;;;24.00;74.59
11053;BME280;55230;42.602;23.470;2023-06-26T08:46:30;93385.09;;;24.28;69.15
11053;BME280;55230;42.602;23.470;2023-06-26T08:49:00;93369.03;;;23.85;72.79
11053;BME280;55230;42.602;23.470;2023-06-26T08:51:28;93369.94;;;23.67;76.88
11053;BME280;55230;42.602;23.470;2023-06-26T08:53:56;93381.75;;;23.88;74.02
11053;BME280;55230;42.602;23.470;2023-06-26T08:56:24;93374.13;;;23.21;76.23
11053;BME280;55230;42.602;23.470;2023-06-26T08:58:51;93382.00;;;22.91;80.16
11053;BME280;55230;42.602;23.470;2023-06-26T09:01:18;93381.66;;;22.81;81.29
11053;BME280;55230;42.602;23.470;2023-06-26T09:03:44;93378.16;;;22.68;78.61
11053;BME280;55230;42.602;23.470;2023-06-26T09:06:11;93380.00;;;22.47;83.04
11053;BME280;55230;42.602;23.470;2023-06-26T09:08:39;93382.91;;;22.23;87.15
11053;BME280;55230;42.602;23.470;2023-06-26T09:11:05;93384.91;;;22.54;84.83
11053;BME280;55230;42.602;23.470;2023-06-26T09:13:32;93381.88;;;22.70;87.11
11053;BME280;55230;42.602;23.470;2023-06-26T09:15:59;93370.88;;;23.23;88.68
11053;BME280;55230;42.602;23.470;2023-06-26T09:18:25;93378.16;;;23.46;76.67
11053;BME280;55230;42.602;23.470;2023-06-26T09:20:52;93386.38;;;23.59;78.15
11053;BME280;55230;42.602;23.470;2023-06-26T09:23:18;93373.16;;;23.91;78.37
11053;BME280;55230;42.602;23.470;2023-06-26T09:25:47;93369.66;;;24.45;74.90
11053;BME280;55230;42.602;23.470;2023-06-26T09:28:13;93373.16;;;23.91;73.37
11053;BME280;55230;42.602;23.470;2023-06-26T09:30:40;93372.78;;;24.70;66.61
11053;BME280;55230;42.602;23.470;2023-06-26T09:33:13;93373.22;;;24.33;63.97
11053;BME280;55230;42.602;23.470;2023-06-26T09:35:40;93371.41;;;23.81;68.85
11053;BME280;55230;42.602;23.470;2023-06-26T09:38:06;93368.94;;;23.57;69.88
11053;BME280;55230;42.602;23.470;2023-06-26T09:40:33;93371.63;;;23.36;70.18
11053;BME280;55230;42.602;23.470;2023-06-26T09:43:03;93368.06;;;23.62;70.64
11053;BME280;55230;42.602;23.470;2023-06-26T09:45:30;93370.28;;;23.63;68.22
11053;BME280;55230;42.602;23.470;2023-06-26T09:47:59;93372.66;;;23.46;69.96
11053;BME280;55230;42.602;23.470;2023-06-26T09:50:26;93370.78;;;23.28;72.11
11053;BME280;55230;42.602;23.470;2023-06-26T09:52:52;93364.41;;;23.33;70.80
11053;BME280;55230;42.602;23.470;2023-06-26T09:55:19;93369.53;;;23.96;72.43
11053;BME280;55230;42.602;23.470;2023-06-26T09:57:46;93373.47;;;24.22;69.18
11053;BME280;55230;42.602;23.470;2023-06-26T10:00:15;93366.22;;;24.73;64.35
11053;BME280;55230;42.602;23.470;2023-06-26T10:02:42;93371.91;;;25.03;63.42
11053;BME280;55230;42.602;23.470;2023-06-26T10:05:08;93373.69;;;24.93;63.58
11053;BME280;55230;42.602;23.470;2023-06-26T10:07:35;93373.59;;;24.78;62.95
11053;BME280;55230;42.602;23.470;2023-06-26T10:10:02;93371.34;;;24.56;65.17
11053;BME280;55230;42.602;23.470;2023-06-26T10:12:29;93376.69;;;24.54;61.96
11053;BME280;55230;42.602;23.470;2023-06-26T10:14:56;93355.75;;;23.76;69.15
11053;BME280;55230;42.602;23.470;2023-06-26T10:17:25;93362.88;;;23.58;71.39
11053;BME280;55230;42.602;23.470;2023-06-26T10:19:54;93361.53;;;23.52;70.80
11053;BME280;55230;42.602;23.470;2023-06-26T10:22:24;93372.34;;;23.50;68.78
11053;BME280;55230;42.602;23.470;2023-06-26T10:24:53;93367.09;;;23.72;68.97
11053;BME280;55230;42.602;23.470;2023-06-26T10:27:23;93371.31;;;23.73;67.60
11053;BME280;55230;42.602;23.470;2023-06-26T10:29:50;93372.41;;;23.57;67.07
11053;BME280;55230;42.602;23.470;2023-06-26T10:32:19;93362.25;;;23.52;64.79
11053;BME280;55230;42.602;23.470;2023-06-26T10:34:48;93357.31;;;23.71;65.48
11053;BME280;55230;42.602;23.470;2023-06-26T10:37:14;93355.13;;;23.90;65.51
11053;BME280;55230;42.602;23.470;2023-06-26T10:39:48;93357.97;;;23.77;62.81
11053;BME280;55230;42.602;23.470;2023-06-26T10:42:15;93357.97;;;23.64;68.95
11053;BME280;55230;42.602;23.470;2023-06-26T10:44:42;93352.44;;;23.44;76.21
11053;BME280;55230;42.602;23.470;2023-06-26T10:47:09;93351.38;;;23.47;74.07
11053;BME280;55230;42.602;23.470;2023-06-26T10:49:36;93355.53;;;23.14;72.48
11053;BME280;55230;42.602;23.470;2023-06-26T10:52:06;93353.63;;;23.22;72.69
11053;BME280;55230;42.602;23.470;2023-06-26T10:54:32;93353.00;;;22.90;72.06
11053;BME280;55230;42.602;23.470;2023-06-26T10:56:59;93348.56;;;22.87;73.07
11053;BME280;55230;42.602;23.470;2023-06-26T10:59:27;93363.81;;;22.88;74.41
11053;BME280;55230;42.602;23.470;2023-06-26T11:01:54;93360.53;;;22.89;80.16
11053;BME280;55230;42.602;23.470;2023-06-26T11:04:35;93353.19;;;22.66;76.67
11053;BME280;55230;42.602;23.470;2023-06-26T11:07:15;93346.22;;;22.65;77.06
11053;BME280;55230;42.602;23.470;2023-06-26T11:09:53;93351.31;;;22.87;76.97
11053;BME280;55230;42.602;23.470;2023-06-26T11:12:33;93351.75;;;22.91;73.47
11053;BME280;55230;42.602;23.470;2023-06-26T11:15:00;93344.75;;;23.03;71.08
11053;BME280;55230;42.602;23.470;2023-06-26T11:17:27;93341.03;;;23.14;73.47
11053;BME280;55230;42.602;23.470;2023-06-26T11:19:54;93342.81;;;23.37;73.43
11053;BME280;55230;42.602;23.470;2023-06-26T11:22:22;93336.72;;;23.65;71.72
11053;BME280;55230;42.602;23.470;2023-06-26T11:24:51;93342.50;;;23.74;71.04
11053;BME280;55230;42.602;23.470;2023-06-26T11:27:19;93346.88;;;24.04;69.67
11053;BME280;55230;42.602;23.470;2023-06-26T11:29:48;93346.44;;;23.99;71.02
11053;BME280;55230;42.602;23.470;2023-06-26T11:32:15;93350.53;;;24.27;70.43
11053;BME280;55230;42.602;23.470;2023-06-26T11:34:41;93338.44;;;24.09;69.30
11053;BME280;55230;42.602;23.470;2023-06-26T11:37:09;93338.81;;;24.06;69.30
11053;BME280;55230;42.602;23.470;2023-06-26T11:39:38;93338.81;;;24.06;69.52
11053;BME280;55230;42.602;23.470;2023-06-26T11:42:04;93342.91;;;24.12;66.78
11053;BME280;55230;42.602;23.470;2023-06-26T11:44:31;93345.19;;;23.87;62.65
11053;BME280;55230;42.602;23.470;2023-06-26T11:46:58;93344.31;;;23.92;61.46
11053;BME280;55230;42.602;23.470;2023-06-26T11:49:24;93346.56;;;23.60;62.81
11053;BME280;55230;42.602;23.470;2023-06-26T11:51:52;93341.94;;;23.55;63.89
11053;BME280;55230;42.602;23.470;2023-06-26T11:54:26;93334.44;;;23.76;61.99
11053;BME280;55230;42.602;23.470;2023-06-26T11:56:55;93335.84;;;24.04;65.43
11053;BME280;55230;42.602;23.470;2023-06-26T11:59:22;93338.94;;;24.21;58.60
11053;BME280;55230;42.602;23.470;2023-06-26T12:01:50;93333.78;;;24.66;61.81
11053;BME280;55230;42.602;23.470;2023-06-26T12:04:18;93337.22;;;24.87;59.12
11053;BME280;55230;42.602;23.470;2023-06-26T12:06:46;93341.75;;;25.05;59.17
11053;BME280;55230;42.602;23.470;2023-06-26T12:09:13;93336.50;;;24.86;58.42
11053;BME280;55230;42.602;23.470;2023-06-26T12:11:40;93334.31;;;24.92;55.28
11053;BME280;55230;42.602;23.470;2023-06-26T12:14:08;93333.97;;;24.96;57.80
11053;BME280;55230;42.602;23.470;2023-06-26T12:16:36;93340.44;;;24.50;53.07
11053;BME280;55230;42.602;23.470;2023-06-26T12:19:05;93330.97;;;24.38;54.36
11053;BME280;55230;42.602;23.470;2023-06-26T12:21:44;93341.00;;;24.28;54.34
11053;BME280;55230;42.602;23.470;2023-06-26T12:24:12;93330.03;;;24.15;55.28
11053;BME280;55230;42.602;23.470;2023-06-26T12:26:41;93329.66;;;24.31;56.69
11053;BME280;55230;42.602;23.470;2023-06-26T12:29:10;93335.41;;;24.41;56.00
11053;BME280;55230;42.602;23.470;2023-06-26T12:31:39;93331.91;;;24.89;57.88
11053;BME280;55230;42.602;23.470;2023-06-26T12:34:08;93328.44;;;24.96;55.07
11053;BME280;55230;42.602;23.470;2023-06-26T12:36:39;93322.84;;;25.17;56.31
11053;BME280;55230;42.602;23.470;2023-06-26T12:39:05;93326.06;;;25.36;55.53
11053;BME280;55230;42.602;23.470;2023-06-26T12:41:32;93325.66;;;25.32;54.05
11053;BME280;55230;42.602;23.470;2023-06-26T12:43:58;93334.13;;;25.26;53.31
11053;BME280;55230;42.602;23.470;2023-06-26T12:46:34;93327.81;;;25.18;54.73